createdAt,value
2022-12-18T06:09:10.023Z,97818.13
2022-12-18T06:54:13.064Z,97913.24
2022-12-18T09:03:27.506Z,98058.99
2022-12-18T09:29:04.639Z,98074.25
2022-12-18T09:31:35.313Z,98069.61
2022-12-18T09:34:05.686Z,98068.61
2022-12-18T09:36:36.541Z,98072.13
2022-12-18T09:39:08.606Z,98075.60
2022-12-18T09:41:55.014Z,98073.80
2022-12-18T09:44:45.799Z,98071.34
2022-12-18T09:47:24.991Z,98071.46
2022-12-18T09:50:05.800Z,98070.27
2022-12-18T09:52:43.210Z,98070.41
2022-12-18T09:55:33.603Z,98068.90
2022-12-18T09:58:39.477Z,98068.29
2022-12-18T10:01:16.339Z,98066.73
2022-12-18T10:03:49.711Z,98070.40
2022-12-18T10:06:50.640Z,98074.27
2022-12-18T10:09:44.492Z,98081.42
2022-12-18T10:12:37.939Z,98086.36
2022-12-18T10:15:29.809Z,98084.69
2022-12-18T10:18:20.322Z,98087.86
2022-12-18T10:21:01.580Z,98080.20
2022-12-18T10:24:04.929Z,98080.48
2022-12-18T10:26:35.749Z,98079.39
2022-12-18T10:29:16.191Z,98074.50
2022-12-18T10:31:46.871Z,98071.73
2022-12-18T10:34:17.092Z,98075.42
2022-12-18T10:36:49.041Z,98072.54
2022-12-18T10:39:19.757Z,98063.60
2022-12-18T10:41:49.178Z,98068.79
2022-12-18T10:44:24.750Z,98073.60
2022-12-18T10:47:11.696Z,98075.33
2022-12-18T10:49:52.125Z,98081.70
2022-12-18T10:52:25.272Z,98080.14
2022-12-18T10:55:05.066Z,98078.88
2022-12-18T10:57:42.919Z,98075.90
2022-12-18T11:00:29.610Z,98068.25
2022-12-18T11:03:00.048Z,98068.11
2022-12-18T11:05:33.431Z,98067.05
2022-12-18T11:08:05.097Z,98069.81
2022-12-18T11:10:39.198Z,98067.84
2022-12-18T11:13:22.550Z,98077.17
2022-12-18T11:15:54.123Z,98080.39
2022-12-18T11:18:37.339Z,98080.92
2022-12-18T11:21:14.874Z,98087.53
2022-12-18T11:23:53.009Z,98082.42
2022-12-18T11:26:23.184Z,98081.30
2022-12-18T11:29:09.268Z,98074.96
2022-12-18T11:31:39.157Z,98078.39
2022-12-18T11:34:30.891Z,98070.91
2022-12-18T11:37:04.585Z,98073.77
2022-12-18T11:39:51.774Z,98079.12
2022-12-18T11:42:39.974Z,98076.75
2022-12-18T11:45:25.696Z,98079.92
2022-12-18T11:48:17.435Z,98079.80
2022-12-18T11:50:58.141Z,98079.95
2022-12-18T11:53:29.147Z,98080.80
2022-12-18T11:56:14.158Z,98085.54
2022-12-18T11:59:27.183Z,98088.23
2022-12-18T12:02:31.103Z,98090.89
2022-12-18T12:05:26.326Z,98088.33
2022-12-18T12:08:21.778Z,98094.54
2022-12-18T12:11:21.271Z,98090.02
2022-12-18T12:14:19.276Z,98091.27
2022-12-18T12:17:26.991Z,98093.21
2022-12-18T12:20:51.755Z,98097.23
2022-12-18T12:23:42.551Z,98094.24
2022-12-18T12:26:32.199Z,98092.21
2022-12-18T12:29:10.762Z,98094.58
2022-12-18T12:32:00.332Z,98098.52
2022-12-18T12:34:47.870Z,98096.61
2022-12-18T12:37:55.373Z,98096.86
2022-12-18T12:40:51.343Z,98105.30
2022-12-18T12:43:29.220Z,98107.70
2022-12-18T12:46:11.211Z,98106.14
2022-12-18T12:48:58.138Z,98107.71
2022-12-18T12:51:38.418Z,98109.79
2022-12-18T12:54:18.923Z,98119.80
2022-12-18T12:57:05.436Z,98121.09
2022-12-18T12:59:51.328Z,98116.36
2022-12-18T13:02:54.105Z,98118.85
2022-12-18T13:05:55.882Z,98123.78
2022-12-18T13:08:31.632Z,98120.11
2022-12-18T13:11:45.832Z,98127.27
2022-12-18T13:14:32.423Z,98130.06
2022-12-18T13:17:26.356Z,98130.64
2022-12-18T13:20:13.984Z,98135.77
2022-12-18T13:22:50.501Z,98148.53
2022-12-18T13:25:33.721Z,98153.16
2022-12-18T13:28:07.333Z,98154.79
2022-12-18T13:30:37.928Z,98148.16
2022-12-18T13:33:17.311Z,98145.48
2022-12-18T13:35:50.721Z,98149.12
2022-12-18T13:38:38.387Z,98146.18
2022-12-18T13:41:17.734Z,98141.33
2022-12-18T13:43:50.678Z,98145.03
2022-12-18T13:46:51.484Z,98146.19
2022-12-18T13:49:42.663Z,98148.27
2022-12-18T13:52:27.774Z,98149.70
2022-12-18T13:55:05.113Z,98150.61
2022-12-18T13:57:39.759Z,98152.98
2022-12-18T14:00:35.547Z,98154.69
2022-12-18T14:03:27.702Z,98157.45
2022-12-18T14:06:23.669Z,98157.02
2022-12-18T14:08:54.823Z,98162.67
2022-12-18T14:11:26.717Z,98166.34
2022-12-18T14:13:57.841Z,98168.52
2022-12-18T14:16:30.024Z,98171.27
2022-12-18T14:19:02.708Z,98175.45
2022-12-18T14:21:39.389Z,98175.45
2022-12-18T14:24:22.392Z,98184.86
2022-12-18T14:26:53.073Z,98191.69
2022-12-18T14:29:30.757Z,98191.27
2022-12-18T14:32:19.452Z,98197.32
2022-12-18T14:34:52.034Z,98202.99
2022-12-18T14:37:27.384Z,98210.15
2022-12-18T14:40:07.162Z,98217.23
2022-12-18T14:42:39.616Z,98223.83
2022-12-18T14:45:47.470Z,98233.71
2022-12-18T14:48:23.346Z,98238.23
2022-12-18T14:51:17.632Z,98249.05
2022-12-18T14:53:57.065Z,98247.05
2022-12-18T14:56:30.437Z,98249.09
2022-12-18T14:59:06.360Z,98251.20
2022-12-18T15:01:47.778Z,98262.70
2022-12-18T15:04:31.105Z,98262.39
2022-12-18T15:07:24.781Z,98270.59
2022-12-18T15:10:09.199Z,98278.23
2022-12-18T15:12:50.675Z,98283.92
2022-12-18T15:15:40.838Z,98290.79
2022-12-18T15:18:13.487Z,98289.14
2022-12-18T15:21:01.500Z,98285.33
2022-12-18T15:23:47.085Z,98289.54
2022-12-18T15:26:18.450Z,98293.54
2022-12-18T15:28:53.987Z,98300.06
2022-12-18T15:31:37.011Z,98302.38
2022-12-18T15:34:09.355Z,98310.53
2022-12-18T15:36:39.873Z,98309.86
2022-12-18T15:39:13.482Z,98309.30
2022-12-18T15:42:04.351Z,98314.98
2022-12-18T15:44:36.084Z,98315.37
2022-12-18T15:47:12.457Z,98315.05
2022-12-18T15:49:42.344Z,98314.25
2022-12-18T15:52:14.970Z,98312.02
2022-12-18T15:55:04.976Z,98312.53
2022-12-18T15:57:35.083Z,98309.71
2022-12-18T16:00:06.060Z,98313.85
2022-12-18T16:02:36.285Z,98317.90
2022-12-18T16:05:18.469Z,98315.34
2022-12-18T16:07:48.095Z,98312.05
2022-12-18T16:10:18.991Z,98318.38
2022-12-18T16:12:49.117Z,98321.27
2022-12-18T16:15:24.233Z,98317.34
2022-12-18T16:17:54.523Z,98323.27
2022-12-18T16:20:24.936Z,98326.59
2022-12-18T16:22:54.871Z,98333.78
2022-12-18T16:25:29.374Z,98335.83
2022-12-18T16:27:59.574Z,98334.73
2022-12-18T16:30:33.066Z,98339.54
2022-12-18T16:33:09.530Z,98342.45
2022-12-18T16:35:39.747Z,98344.85
2022-12-18T16:38:10.996Z,98341.70
2022-12-18T16:41:01.193Z,98341.13
2022-12-18T16:43:32.074Z,98348.32
2022-12-18T16:46:02.676Z,98352.65
2022-12-18T16:48:35.724Z,98355.85
2022-12-18T16:51:06.558Z,98356.83
2022-12-18T16:53:36.662Z,98362.83
2022-12-18T16:56:06.971Z,98356.61
2022-12-18T16:58:37.222Z,98361.42
2022-12-18T17:01:13.487Z,98360.14
2022-12-18T17:03:44.674Z,98367.45
2022-12-18T17:06:16.899Z,98371.94
2022-12-18T17:08:47.876Z,98375.35
2022-12-18T17:11:17.780Z,98375.84
2022-12-18T17:13:48.009Z,98378.71
2022-12-18T17:16:18.391Z,98382.15
2022-12-18T17:18:49.272Z,98385.87
2022-12-18T17:21:20.102Z,98384.44
2022-12-18T17:23:50.576Z,98384.17
2022-12-18T17:26:21.194Z,98385.85
2022-12-18T17:28:51.548Z,98389.13
2022-12-18T17:31:23.166Z,98386.69
2022-12-18T17:33:54.196Z,98386.89
2022-12-18T17:36:25.226Z,98388.95
2022-12-18T17:38:57.773Z,98394.31
2022-12-18T17:41:27.551Z,98398.45
2022-12-18T17:44:02.059Z,98394.64
2022-12-18T17:46:35.395Z,98399.83
2022-12-18T17:49:05.376Z,98401.53
2022-12-18T17:51:35.311Z,98404.63
2022-12-18T17:54:05.914Z,98409.08
2022-12-18T17:56:36.079Z,98407.04
2022-12-18T17:59:07.420Z,98409.70
2022-12-18T18:01:43.724Z,98406.70
2022-12-18T18:04:17.035Z,98411.16
2022-12-18T18:06:47.432Z,98411.52
2022-12-18T18:09:17.783Z,98412.20
2022-12-18T18:12:07.739Z,98421.41
2022-12-18T18:14:37.246Z,98421.51
2022-12-18T18:17:07.816Z,98420.19
2022-12-18T18:19:37.881Z,98420.15
2022-12-18T18:22:09.395Z,98425.05
2022-12-18T18:24:39.327Z,98428.41
2022-12-18T18:27:09.219Z,98431.00
2022-12-18T18:29:40.524Z,98432.56
2022-12-18T18:32:10.659Z,98431.77
2022-12-18T18:34:43.472Z,98429.78
2022-12-18T18:37:13.489Z,98430.08
2022-12-18T18:39:43.459Z,98422.99
2022-12-18T18:42:13.349Z,98426.44
2022-12-18T18:44:48.577Z,98427.34
2022-12-18T18:47:19.616Z,98427.05
2022-12-18T18:49:49.959Z,98429.83
2022-12-18T18:52:20.172Z,98431.15
2022-12-18T18:55:11.808Z,98438.84
2022-12-18T18:57:42.535Z,98440.85
2022-12-18T19:00:13.413Z,98436.50
2022-12-18T19:02:42.388Z,98436.20
2022-12-18T19:05:12.494Z,98436.36
2022-12-18T19:07:42.750Z,98441.75
2022-12-18T19:10:11.556Z,98447.39
2022-12-18T19:13:12.637Z,98448.88
2022-12-18T19:15:46.350Z,98451.58
2022-12-18T19:18:17.103Z,98449.58
2022-12-18T19:20:56.022Z,98449.90
2022-12-18T19:23:26.168Z,98453.09
2022-12-18T19:26:26.625Z,98450.09
2022-12-18T19:28:47.036Z,98443.31
2022-12-18T19:31:24.178Z,98437.39
2022-12-18T19:33:57.000Z,98439.70
2022-12-18T19:36:29.116Z,98432.92
2022-12-18T19:39:01.308Z,98439.35
2022-12-18T19:41:32.951Z,98444.38
2022-12-18T19:44:06.018Z,98452.08
2022-12-18T19:46:42.010Z,98459.26
2022-12-18T19:49:17.685Z,98458.48
2022-12-18T19:51:50.371Z,98450.91
2022-12-18T19:54:20.913Z,98455.29
2022-12-18T19:56:53.263Z,98457.65
2022-12-18T19:59:23.756Z,98460.32
2022-12-18T20:01:54.689Z,98459.13
2022-12-18T20:04:24.925Z,98454.77
2022-12-18T20:06:55.319Z,98450.09
2022-12-18T20:09:25.628Z,98452.86
2022-12-18T20:11:56.351Z,98459.34
2022-12-18T20:14:26.395Z,98461.39
2022-12-18T20:16:56.381Z,98465.90
2022-12-18T20:19:27.733Z,98460.35
2022-12-18T20:21:57.867Z,98461.48
2022-12-18T20:24:28.281Z,98462.63
2022-12-18T20:26:57.677Z,98460.52
2022-12-18T20:29:27.826Z,98464.35
2022-12-18T20:31:57.766Z,98469.52
2022-12-18T20:34:28.037Z,98469.42
2022-12-18T20:36:58.344Z,98467.00
2022-12-18T20:39:30.458Z,98464.08
2022-12-18T20:42:01.632Z,98466.11
2022-12-18T20:44:31.480Z,98459.23
2022-12-18T20:47:07.461Z,98462.32
2022-12-18T20:49:39.605Z,98469.21
2022-12-18T20:52:15.441Z,98474.17
2022-12-18T20:54:46.073Z,98470.89
2022-12-18T20:57:16.228Z,98471.60
2022-12-18T20:59:48.336Z,98468.34
2022-12-18T21:02:18.668Z,98471.51
2022-12-18T21:04:49.091Z,98469.77
2022-12-18T21:07:19.131Z,98471.91
2022-12-18T21:09:47.867Z,98474.09
2022-12-18T21:12:48.151Z,98483.73
2022-12-18T21:15:30.854Z,98490.49
2022-12-18T21:18:01.112Z,98499.61
2022-12-18T21:20:31.249Z,98505.02
2022-12-18T21:23:15.840Z,98503.04
2022-12-18T21:25:49.440Z,98501.36
2022-12-18T21:28:23.731Z,98506.00
2022-12-18T21:30:53.960Z,98507.96
2022-12-18T21:33:23.943Z,98509.00
2022-12-18T21:35:54.250Z,98515.70
2022-12-18T21:38:24.479Z,98519.83
2022-12-18T21:40:54.666Z,98528.95
2022-12-18T21:43:43.386Z,98527.88
2022-12-18T21:46:13.417Z,98528.64
2022-12-18T21:48:44.293Z,98534.75
2022-12-18T21:51:14.428Z,98531.79
2022-12-18T21:53:44.371Z,98523.45
2022-12-18T21:56:16.316Z,98517.04
2022-12-18T21:58:56.840Z,98519.33
2022-12-18T22:01:32.700Z,98522.85
2022-12-18T22:04:08.718Z,98519.35
2022-12-18T22:06:39.501Z,98523.67
2022-12-18T22:09:10.969Z,98517.06
2022-12-18T22:11:40.388Z,98520.53
2022-12-18T22:14:10.966Z,98522.47
2022-12-18T22:16:41.260Z,98531.69
2022-12-18T22:19:12.515Z,98531.02
2022-12-18T22:21:47.668Z,98529.75
2022-12-18T22:24:23.677Z,98530.48
2022-12-18T22:27:01.862Z,98531.64
2022-12-18T22:29:52.990Z,98527.83
2022-12-18T22:32:31.260Z,98529.40
2022-12-18T22:35:09.165Z,98532.42
2022-12-18T22:37:39.807Z,98529.90
2022-12-18T22:40:25.789Z,98523.66
2022-12-18T22:42:56.611Z,98527.23
2022-12-18T22:45:28.373Z,98521.35
2022-12-18T22:47:58.512Z,98527.38
2022-12-18T22:50:28.401Z,98528.77
2022-12-18T22:52:58.535Z,98530.60
2022-12-18T22:55:28.671Z,98535.35
2022-12-18T22:57:57.345Z,98531.02
2022-12-18T23:00:26.277Z,98537.17
2022-12-18T23:03:00.704Z,98529.64
2022-12-18T23:05:33.048Z,98535.81
2022-12-18T23:08:02.296Z,98533.10
2022-12-18T23:10:31.788Z,98538.23
2022-12-18T23:13:02.032Z,98537.35
2022-12-18T23:15:32.141Z,98542.01
2022-12-18T23:18:02.338Z,98545.14
2022-12-18T23:20:32.486Z,98546.73
2022-12-18T23:23:02.766Z,98546.16
2022-12-18T23:25:33.293Z,98547.18
2022-12-18T23:28:04.349Z,98547.80
2022-12-18T23:30:34.536Z,98554.09
2022-12-18T23:33:04.499Z,98547.30
2022-12-18T23:35:34.799Z,98553.39
2022-12-18T23:38:04.886Z,98547.48
2022-12-18T23:40:34.652Z,98546.73
2022-12-18T23:43:04.571Z,98551.49
2022-12-18T23:45:38.426Z,98557.22
2022-12-18T23:48:07.953Z,98556.45
2022-12-18T23:50:36.679Z,98558.99
2022-12-18T23:53:07.232Z,98556.44
2022-12-18T23:55:44.497Z,98555.61
2022-12-18T23:58:19.949Z,98560.47
